createdAt,value
2022-08-17T00:00:01.599Z,994.11
2022-08-17T00:05:01.207Z,994.06
2022-08-17T00:10:01.994Z,994.14
2022-08-17T00:15:01.706Z,994.17
2022-08-17T00:20:01.174Z,994.25
2022-08-17T00:25:01.844Z,994.22
2022-08-17T00:30:01.841Z,994.24
2022-08-17T00:35:01.934Z,994.22
2022-08-17T00:40:01.424Z,994.24
2022-08-17T00:45:02.109Z,994.24
2022-08-17T00:50:01.365Z,994.17
2022-08-17T00:55:01.753Z,994.08
2022-08-17T01:00:03.491Z,994.1
2022-08-17T01:05:02.025Z,994.06
2022-08-17T01:10:01.855Z,994.04
2022-08-17T01:15:02.005Z,994.06
2022-08-17T01:20:01.202Z,994.03
2022-08-17T01:25:01.387Z,993.99
2022-08-17T01:30:01.562Z,993.99
2022-08-17T01:35:01.258Z,993.99
2022-08-17T01:40:02.151Z,994
2022-08-17T01:45:01.233Z,994.03
2022-08-17T01:50:02.028Z,994.05
2022-08-17T01:55:01.485Z,994.07
2022-08-17T02:00:01.600Z,994.11
2022-08-17T02:05:01.348Z,994.11
2022-08-17T02:10:01.795Z,994.06
2022-08-17T02:15:01.784Z,993.99
2022-08-17T02:20:01.287Z,993.95
2022-08-17T02:25:02.282Z,993.97
2022-08-17T02:30:01.372Z,993.93
2022-08-17T02:35:01.472Z,993.89
2022-08-17T02:40:01.792Z,993.89
2022-08-17T02:45:01.535Z,993.92
2022-08-17T02:50:01.496Z,993.93
2022-08-17T02:55:01.342Z,993.92
2022-08-17T03:00:01.974Z,993.88
2022-08-17T03:05:02.105Z,993.87
2022-08-17T03:10:01.419Z,993.83
2022-08-17T03:15:01.306Z,993.74
2022-08-17T03:20:01.309Z,993.75
2022-08-17T03:25:01.967Z,993.81
2022-08-17T03:30:01.479Z,993.78
2022-08-17T03:35:01.550Z,993.74
2022-08-17T03:40:01.352Z,993.82
2022-08-17T03:45:01.199Z,993.86
2022-08-17T03:50:01.665Z,993.89
2022-08-17T03:55:01.777Z,993.9
2022-08-17T04:00:01.948Z,993.93
2022-08-17T04:05:01.212Z,993.95
2022-08-17T04:10:01.858Z,993.95
2022-08-17T04:15:01.494Z,993.94
2022-08-17T04:20:01.167Z,994
2022-08-17T04:25:01.798Z,993.95
2022-08-17T04:30:01.527Z,993.96
2022-08-17T04:35:01.575Z,993.92
2022-08-17T04:40:04.073Z,993.95
2022-08-17T04:45:01.453Z,993.98
2022-08-17T04:50:02.060Z,994
2022-08-17T04:55:01.677Z,993.96
2022-08-17T05:00:01.919Z,994.05
2022-08-17T05:05:01.985Z,994
2022-08-17T05:10:01.255Z,993.97
2022-08-17T05:15:01.337Z,993.98
2022-08-17T05:20:01.434Z,993.92
2022-08-17T05:25:02.801Z,993.96
2022-08-17T05:30:01.402Z,993.98
2022-08-17T05:35:01.190Z,994.02
2022-08-17T05:40:02.331Z,993.96
2022-08-17T05:45:01.869Z,993.98
2022-08-17T05:50:01.633Z,994.05
2022-08-17T05:55:01.787Z,994.08
2022-08-17T06:00:01.257Z,994.12
2022-08-17T06:05:01.784Z,994.13
2022-08-17T06:10:01.684Z,994.29
2022-08-17T06:15:01.638Z,994.2
2022-08-17T06:20:01.979Z,994.12
2022-08-17T06:25:01.440Z,994.07
2022-08-17T06:30:01.596Z,994.26
2022-08-17T06:35:02.022Z,994.68
2022-08-17T06:40:02.223Z,994.38
2022-08-17T06:45:01.768Z,994.66
2022-08-17T06:50:02.012Z,994.64
2022-08-17T06:55:01.428Z,994.46
2022-08-17T07:00:01.510Z,994.6
2022-08-17T07:05:01.271Z,994.65
2022-08-17T07:10:02.107Z,994.69
2022-08-17T07:15:01.549Z,994.7
2022-08-17T07:20:01.238Z,994.66
2022-08-17T07:25:01.317Z,994.75
2022-08-17T07:30:01.187Z,994.92
2022-08-17T07:35:01.786Z,995.01
2022-08-17T07:40:16.309Z,995
2022-08-17T07:45:01.705Z,995.03
2022-08-17T07:50:01.845Z,995
2022-08-17T07:55:01.805Z,995.02
2022-08-17T08:00:01.979Z,995.09
2022-08-17T08:05:02.289Z,995.07
2022-08-17T08:10:01.457Z,995.07
2022-08-17T08:15:01.832Z,995.21
2022-08-17T08:20:01.538Z,995.36
2022-08-17T08:25:01.980Z,995.39
2022-08-17T08:30:01.635Z,995.49
2022-08-17T08:35:03.373Z,995.48
2022-08-17T08:40:01.798Z,995.48
2022-08-17T08:45:05.089Z,995.46
2022-08-17T08:50:04.296Z,995.56
2022-08-17T08:55:01.638Z,995.68
2022-08-17T09:00:02.064Z,995.61
2022-08-17T09:05:14.965Z,995.5
2022-08-17T09:10:01.618Z,995.57
2022-08-17T09:15:01.963Z,995.74
2022-08-17T09:20:01.364Z,995.76
2022-08-17T09:25:01.546Z,995.7
2022-08-17T09:30:01.576Z,995.59
2022-08-17T09:35:01.353Z,995.54
2022-08-17T09:40:02.217Z,995.68
2022-08-17T09:45:02.106Z,995.56
2022-08-17T09:50:01.325Z,995.5
2022-08-17T09:55:01.499Z,995.51
2022-08-17T10:00:01.409Z,995.51
2022-08-17T10:05:01.173Z,995.51
2022-08-17T10:10:01.771Z,995.6
2022-08-17T10:15:07.660Z,995.67
2022-08-17T10:20:02.089Z,995.68
2022-08-17T10:25:23.262Z,995.69
2022-08-17T10:30:01.950Z,995.75
2022-08-17T10:35:01.412Z,995.83
2022-08-17T10:40:01.488Z,995.91
2022-08-17T10:45:01.173Z,995.93
2022-08-17T10:50:01.232Z,995.86
2022-08-17T10:55:02.047Z,995.92
2022-08-17T11:00:01.137Z,995.86
2022-08-17T11:05:01.945Z,995.91
2022-08-17T11:10:01.730Z,995.88
2022-08-17T11:15:01.893Z,995.86
2022-08-17T11:20:01.577Z,995.8
2022-08-17T11:25:01.498Z,995.78
2022-08-17T11:30:02.744Z,995.78
2022-08-17T11:35:01.891Z,995.69
2022-08-17T11:40:01.390Z,995.7
2022-08-17T11:45:01.281Z,995.69
2022-08-17T11:50:02.057Z,995.56
2022-08-17T11:55:24.194Z,995.55
2022-08-17T12:00:01.464Z,995.66
2022-08-17T12:05:02.042Z,995.75
2022-08-17T12:10:01.396Z,995.86
2022-08-17T12:15:11.424Z,995.74
2022-08-17T12:20:01.873Z,995.66
2022-08-17T12:25:01.952Z,995.61
2022-08-17T12:30:01.573Z,995.73
2022-08-17T12:35:01.212Z,995.77
2022-08-17T12:40:01.958Z,995.87
2022-08-17T12:45:02.052Z,995.83
2022-08-17T12:50:02.128Z,995.78
2022-08-17T12:55:01.573Z,995.73
2022-08-17T13:00:01.442Z,995.67
2022-08-17T13:05:02.070Z,995.59
2022-08-17T13:10:01.945Z,995.64
2022-08-17T13:15:01.404Z,995.65
2022-08-17T13:20:01.641Z,995.57
2022-08-17T13:25:01.932Z,995.66
2022-08-17T13:30:02.222Z,995.65
2022-08-17T13:35:14.303Z,995.65
2022-08-17T13:40:01.297Z,995.61
2022-08-17T13:45:01.351Z,995.51
2022-08-17T13:50:01.704Z,995.43
2022-08-17T13:55:01.373Z,995.52
2022-08-17T14:00:01.338Z,995.59
2022-08-17T14:05:01.802Z,995.59
2022-08-17T14:10:01.700Z,995.61
2022-08-17T14:15:02.071Z,995.6
2022-08-17T14:20:01.822Z,995.5
2022-08-17T14:25:01.670Z,995.5
2022-08-17T14:30:02.114Z,995.44
2022-08-17T14:35:02.036Z,995.39
2022-08-17T14:40:01.463Z,995.38
2022-08-17T14:45:01.354Z,995.47
2022-08-17T14:50:01.568Z,995.45
2022-08-17T14:55:01.853Z,995.48
2022-08-17T15:00:01.993Z,995.5
2022-08-17T15:05:01.497Z,995.5
2022-08-17T15:10:02.113Z,995.38
2022-08-17T15:15:02.052Z,995.46
2022-08-17T15:20:01.670Z,995.37
2022-08-17T15:25:01.616Z,995.19
2022-08-17T15:30:01.275Z,995.22
2022-08-17T15:35:01.756Z,995.24
2022-08-17T15:40:01.691Z,995.21
2022-08-17T15:45:01.809Z,995.16
2022-08-17T15:50:01.649Z,995.13
2022-08-17T15:55:01.357Z,995.22
2022-08-17T16:00:01.838Z,995.28
2022-08-17T16:05:02.121Z,995.33
2022-08-17T16:10:01.575Z,995.31
2022-08-17T16:15:01.590Z,995.27
2022-08-17T16:20:01.581Z,995.3
2022-08-17T16:25:02.010Z,995.27
2022-08-17T16:30:01.326Z,995.3
2022-08-17T16:35:01.313Z,995.14
2022-08-17T16:40:02.120Z,995.11
2022-08-17T16:45:01.229Z,995.15
2022-08-17T16:50:01.449Z,995.25
2022-08-17T16:55:01.679Z,995.27
2022-08-17T17:00:01.448Z,995.23
2022-08-17T17:05:01.698Z,995.16
2022-08-17T17:10:01.852Z,995.07
2022-08-17T17:15:01.911Z,995.09
2022-08-17T17:20:01.856Z,995.17
2022-08-17T17:25:01.606Z,995.29
2022-08-17T17:30:01.668Z,995.42
2022-08-17T17:35:01.412Z,995.49
2022-08-17T17:40:01.509Z,995.52
2022-08-17T17:45:01.925Z,995.5
2022-08-17T17:50:01.487Z,995.47
2022-08-17T17:55:01.485Z,995.45
2022-08-17T18:00:01.541Z,995.49
2022-08-17T18:05:01.303Z,995.52
2022-08-17T18:10:02.800Z,995.54
2022-08-17T18:15:01.290Z,995.57
2022-08-17T18:20:01.228Z,995.58
2022-08-17T18:25:02.028Z,995.7
2022-08-17T18:30:04.461Z,995.74
2022-08-17T18:35:02.235Z,995.8
2022-08-17T18:40:01.554Z,995.83
2022-08-17T18:45:01.348Z,995.88
2022-08-17T18:50:01.264Z,995.93
2022-08-17T18:55:01.834Z,995.98
2022-08-17T19:00:02.164Z,995.93
2022-08-17T19:05:01.755Z,996.06
2022-08-17T19:10:01.497Z,996.05
2022-08-17T19:15:01.974Z,996.11
2022-08-17T19:20:01.950Z,996.14
2022-08-17T19:25:03.543Z,996.26
2022-08-17T19:30:06.988Z,996.29
2022-08-17T19:35:01.989Z,996.33
2022-08-17T19:40:01.630Z,996.3
2022-08-17T19:45:01.799Z,996.33
2022-08-17T19:50:02.145Z,996.4
2022-08-17T19:55:01.365Z,996.41
2022-08-17T20:00:01.925Z,996.4
2022-08-17T20:05:01.293Z,996.46
2022-08-17T20:10:01.397Z,996.54
2022-08-17T20:15:01.288Z,996.63
2022-08-17T20:20:01.881Z,996.78
2022-08-17T20:25:01.973Z,996.96
2022-08-17T20:30:01.859Z,996.89
2022-08-17T20:35:02.054Z,996.88
2022-08-17T20:40:01.492Z,996.92
2022-08-17T20:45:01.490Z,996.9
2022-08-17T20:50:01.166Z,996.75
2022-08-17T20:55:01.993Z,996.71
2022-08-17T21:00:01.896Z,996.81
2022-08-17T21:05:02.067Z,996.81
2022-08-17T21:10:01.994Z,996.87
2022-08-17T21:15:01.329Z,996.86
2022-08-17T21:20:11.778Z,996.96
2022-08-17T21:25:01.536Z,997.06
2022-08-17T21:30:01.728Z,997.14
2022-08-17T21:35:01.559Z,997.12
2022-08-17T21:40:01.232Z,997.22
2022-08-17T21:45:01.906Z,997.31
2022-08-17T21:50:01.877Z,997.22
2022-08-17T21:55:01.454Z,997.05
2022-08-17T22:00:01.929Z,997
2022-08-17T22:05:01.803Z,997.07
2022-08-17T22:10:01.805Z,997.27
2022-08-17T22:15:01.597Z,997.21
2022-08-17T22:20:02.148Z,997.2
2022-08-17T22:25:01.999Z,997.3
2022-08-17T22:30:01.941Z,997.4
2022-08-17T22:35:01.639Z,997.45
2022-08-17T22:40:01.452Z,997.43
2022-08-17T22:45:01.515Z,997.35
2022-08-17T22:50:01.648Z,997.33
2022-08-17T22:55:02.240Z,997.28
2022-08-17T23:00:01.642Z,997.36
2022-08-17T23:05:02.242Z,997.42
2022-08-17T23:10:01.748Z,997.42
2022-08-17T23:20:01.788Z,997.56
2022-08-17T23:25:01.420Z,997.48
2022-08-17T23:30:02.318Z,997.42
2022-08-17T23:35:01.287Z,997.54
2022-08-17T23:40:02.274Z,997.55
2022-08-17T23:45:01.564Z,997.57
2022-08-17T23:50:01.894Z,997.53
2022-08-17T23:55:01.458Z,997.55
